createdAt,value
2022-11-16T11:27:37.204Z,20.64
2022-11-16T11:27:48.169Z,20.66
2022-11-16T11:27:58.150Z,20.68
2022-11-16T11:28:08.157Z,20.67
2022-11-16T11:28:18.134Z,20.63
2022-11-16T11:28:28.131Z,20.60
2022-11-16T11:28:38.127Z,20.56
2022-11-16T11:28:48.131Z,20.55
2022-11-16T11:28:58.113Z,20.56
2022-11-16T11:29:08.102Z,20.55
2022-11-16T11:29:28.084Z,20.55
2022-11-16T11:29:38.081Z,20.50
2022-11-16T11:29:48.095Z,20.49
2022-11-16T11:29:58.062Z,20.48
2022-11-16T11:30:08.076Z,20.42
2022-11-16T11:30:24.724Z,20.40
2022-11-16T11:30:39.434Z,20.33
2022-11-16T11:30:49.407Z,20.27
2022-11-16T11:30:59.407Z,20.24
2022-11-16T11:31:09.410Z,20.21
2022-11-16T11:31:19.383Z,20.21
2022-11-16T11:31:29.376Z,20.27
2022-11-16T11:31:39.361Z,20.32
2022-11-16T11:31:50.363Z,20.30
2022-11-16T11:31:59.347Z,20.29
2022-11-16T11:32:09.330Z,20.26
2022-11-16T11:32:23.945Z,20.24
2022-11-16T11:32:29.311Z,20.19
2022-11-16T11:32:39.298Z,20.15
2022-11-16T11:32:49.285Z,20.14
2022-11-16T11:32:59.282Z,20.11
2022-11-16T11:33:09.270Z,20.08
2022-11-16T11:33:19.253Z,20.07
2022-11-16T11:33:29.238Z,20.02
2022-11-16T11:33:39.230Z,20.00
2022-11-16T11:33:49.221Z,19.99
2022-11-16T11:33:59.202Z,19.97
2022-11-16T11:34:09.184Z,19.94
2022-11-16T11:34:19.186Z,19.93
2022-11-16T11:34:29.159Z,19.90
2022-11-16T11:34:39.146Z,19.89
2022-11-16T11:34:49.205Z,19.90
2022-11-16T11:34:59.139Z,19.87
2022-11-16T11:35:09.110Z,19.89
2022-11-16T11:35:19.139Z,19.90
2022-11-16T11:35:29.087Z,19.92
2022-11-16T11:35:39.064Z,19.90
2022-11-16T11:35:49.059Z,19.90
2022-11-16T11:35:59.047Z,19.90
2022-11-16T11:36:09.031Z,19.89
2022-11-16T11:36:19.021Z,19.90
2022-11-16T11:36:29.016Z,19.93
2022-11-16T11:36:39.007Z,19.90
2022-11-16T11:36:48.968Z,19.90
2022-11-16T11:36:58.952Z,19.92
2022-11-16T11:37:08.952Z,19.93
2022-11-16T11:37:18.923Z,19.92
2022-11-16T11:37:28.905Z,19.93
2022-11-16T11:37:38.889Z,19.94
2022-11-16T11:37:48.886Z,19.99
2022-11-16T11:38:02.147Z,20.02
2022-11-16T11:38:09.452Z,20.04
2022-11-16T11:38:18.826Z,20.10
2022-11-16T11:38:28.832Z,20.11
2022-11-16T11:38:38.797Z,20.12
2022-11-16T11:38:48.793Z,20.12
2022-11-16T11:38:58.828Z,20.14
2022-11-16T11:39:08.844Z,20.14
2022-11-16T11:39:18.779Z,20.14
2022-11-16T11:39:28.845Z,20.21
2022-11-16T11:39:38.781Z,20.33
2022-11-16T11:39:48.727Z,20.52
2022-11-16T11:39:58.716Z,20.70
2022-11-16T11:40:08.666Z,20.90
2022-11-16T11:40:18.650Z,21.10
2022-11-16T11:40:28.619Z,21.33
2022-11-16T11:40:38.595Z,21.58
2022-11-16T11:40:48.582Z,21.83
2022-11-16T11:40:58.573Z,22.15
2022-11-16T11:41:08.548Z,22.41
2022-11-16T11:41:18.524Z,22.55
2022-11-16T11:41:28.523Z,22.59
2022-11-16T11:41:38.487Z,22.61
2022-11-16T11:41:48.480Z,22.59
2022-11-16T11:42:13.213Z,22.53
2022-11-16T11:42:17.914Z,22.40
2022-11-16T11:42:27.894Z,22.28
2022-11-16T11:42:37.877Z,22.16
2022-11-16T11:42:47.866Z,22.03
2022-11-16T11:42:57.847Z,21.91
2022-11-16T11:43:07.820Z,21.80
2022-11-16T11:43:19.051Z,21.69
2022-11-16T11:43:27.779Z,21.56
2022-11-16T11:43:37.825Z,21.47
2022-11-16T11:43:47.745Z,21.41
2022-11-16T11:43:57.755Z,21.33
2022-11-16T11:44:17.689Z,21.25
2022-11-16T11:44:27.670Z,21.20
2022-11-16T11:44:37.652Z,21.14
2022-11-16T11:44:47.634Z,21.07
2022-11-16T11:44:57.628Z,21.00
2022-11-16T11:45:07.625Z,20.93
2022-11-16T11:45:17.574Z,20.89
2022-11-16T11:45:27.558Z,20.85
2022-11-16T11:45:37.537Z,20.77
2022-11-16T11:45:47.521Z,20.74
2022-11-16T11:45:57.501Z,20.70
2022-11-16T11:46:07.481Z,20.67
2022-11-16T11:46:17.463Z,20.63
2022-11-16T11:46:47.277Z,20.59
2022-11-16T11:48:01.423Z,20.42
2022-11-16T11:48:06.047Z,20.46
2022-11-16T11:48:10.740Z,20.46
2022-11-16T11:48:20.728Z,20.44
2022-11-16T11:48:30.701Z,20.39
2022-11-16T11:48:40.698Z,20.37
2022-11-16T11:48:50.670Z,20.36
2022-11-16T11:49:00.642Z,20.36
2022-11-16T11:49:10.647Z,20.34
2022-11-16T11:49:20.617Z,20.34
2022-11-16T11:49:33.924Z,20.34
2022-11-16T11:49:40.575Z,20.36
2022-11-16T11:49:53.217Z,20.46
2022-11-16T11:50:00.544Z,20.59
2022-11-16T11:50:10.507Z,20.66
2022-11-16T11:50:20.502Z,20.71
2022-11-16T11:50:30.491Z,20.71
2022-11-16T11:50:40.468Z,20.73
2022-11-16T11:50:50.432Z,20.71
2022-11-16T11:51:00.447Z,20.71
2022-11-16T11:51:10.500Z,20.75
2022-11-16T11:51:20.378Z,20.80
2022-11-16T11:51:30.349Z,20.85
2022-11-16T11:51:40.333Z,20.89
2022-11-16T11:51:50.319Z,20.95
2022-11-16T11:52:00.306Z,21.03
2022-11-16T11:52:10.311Z,21.07
2022-11-16T11:52:20.248Z,21.10
2022-11-16T11:52:45.369Z,21.22
2022-11-16T11:52:56.310Z,21.22
2022-11-16T11:53:06.300Z,21.26
2022-11-16T11:53:16.301Z,21.26
2022-11-16T11:53:26.294Z,21.26
2022-11-16T11:53:36.605Z,21.26
2022-11-16T11:53:46.281Z,21.25
2022-11-16T11:53:56.282Z,21.23
2022-11-16T11:56:03.845Z,21.66
2022-11-16T11:59:46.953Z,21.48
2022-11-16T12:01:25.702Z,20.73
2022-11-16T12:05:14.648Z,21.11
2022-11-16T12:05:25.649Z,21.11
2022-11-16T12:05:35.682Z,22.03
2022-11-16T12:05:45.707Z,23.62
2022-11-16T12:07:16.547Z,23.25
2022-11-16T12:07:27.478Z,23.13
2022-11-16T12:07:37.542Z,25.06
2022-11-16T12:09:56.657Z,23.51
